Decoded Metar for KSUW (SUPERIOR in WI, USA) (IATA:SUW) | Meteo·Mobile Aviation Weather
aviador You're here:

KSUW Decoded Metar

SUPERIOR in WI, USA
Report Time2018-10-19 09:55:00
UTC Time2018-10-19 09:56:13
Flight Rules vfr VFR
Wind220° at 12 Gusting to 18 kt
W.Decomp.*RWY 22: 12.0 kt HW 0.2 kt RCW
RWY 14: 1.9 kt HW 11.9 kt RCW
W.Rank220° ranks 4
Current wind is above 220° avg. (6.5)
Visibility9999 m
Phenomena:N/A
Clouds:N/A
Expected CloudBase > 3,200 ft AGL from Temp-Dew spread
CeilingNone
Temp14°C (ISA 0)
Dew Point06°C (59% RH)
AAT8.8°C
QNH1007 hPa
Density Alt1,050 ft
Elevation676 ft
Report Wrong Elevation
Raw Report
METAR KSUW 190955Z AUTO 22012G18KT 10SM CLR 14/06 A2974 RMK AO2 T01350055=

Extra information for KSUW:More info

Metar Taf Metar & Taf Last 4 Metars F.Rules Stats Wind Profile Meteogram Temp Stats Airport Information Weather charts Add Link Nearby VenuesMetar ALERT Operation Metar Decoded Social comments

AIRNAV info for KSUW